Aérodrome :
LOGIN :

S'inscrire | Disclaimer

   EN    FR    IT 

 










Légende :    VFR   VFR Marginal   IFR   IFR Intensif   IFR Très Intensif
Visi : 
Plafond : 
>= 8 km
>= 3000ft
5 à 8 km
1000 à 3000 ft
1500m à 5 km
500 à 1000 ft
800 à 1500m
200 à 500 ft
< 800m
< 200 ft
Symboles :   Orages  Brouillard  Fortes neiges  Fortes précipitations  Vent > 20 kt
SIGMETs :   Divers  Orages  Givrage  Turbulence  Onde Orograph.  Cendres Volcan.






- Altitude de l'aérodrome : 90 ft
- Code IATA : NTE


LFRS - Nantes

DERNIER METAR :
  • 260800Z AUTO 21006KT 9000 0900 R03/P2000 R21/P2000 BCFG FEW012 BKN064 05/04 Q1017 TEMPO 3000 -RA SCT012TCU BKN014

METARs EXPIRÉS :
  • 260730Z AUTO 21006KT 6000 R21/1000U NSC 05/05 Q1016 TEMPO 3000 -RA SCT012TCU BKN014
  • 260700Z AUTO 21004KT 8000 FEW004 SCT021 BKN074 06/06 Q1016 TEMPO 3000 -RA SCT012TCU BKN014
  • 260630Z AUTO 20005KT 9000 FEW014 SCT064 07/07 Q1016 TEMPO 3000 -RA SCT012TCU BKN014
  • 260600Z AUTO 20006KT 7000 FEW049 OVC062 07/07 Q1016 TEMPO 1000 BCFG SCT012TCU BKN014
  • 260530Z AUTO 19006KT 2300 BR FEW013 SCT027 BKN062 07/07 Q1016 TEMPO 3000 -RADZ BKN008
  • 260500Z AUTO 18004KT 4900 2400 BR FEW023 07/07 Q1016 TEMPO BKN008

TAF AMD TAF LFRS
Valide du 26 à 06h jusqu'au 27 à 12h UTC


260523Z 2606/2712 20006KT 9999 BKN045
PROB40
TEMPO 2606/2608 1000 BCFG
TEMPO 2606/2615 3000 -RA SCT012TCU BKN014
BECMG 2613/2615 22012G25KT
BECMG 2615/2617 3000 RA OVC010
TEMPO 2619/2712 22016G30KT
BECMG 2707/2709 9999 BKN015
ATIS : +33 2 40 05 12 74



MET'MAP, la Météo Aéronautique d'un coup d'oeil ! - Copyright ORBIFLY Décembre 2007 - Disclaimer

ORBIFLY MET'MAP TEAM :

Programmation & Développement : Alexandra Zaïnal
Sur une idée originale de : Baudouin d'Aumeries
Assistance à la programmation : Marc-Olivier Méhu
Soutien technique & logistique : Manuel Goepfert

Contact : metmap@orbifly.com




SOURCES & CREDITS :

   NOAA